createdAt,value
2023-04-05T00:00:13.333Z,997.04
2023-04-05T00:01:13.369Z,997.03
2023-04-05T00:02:13.368Z,997.04
2023-04-05T00:03:13.358Z,997.02
2023-04-05T00:04:13.425Z,997.05
2023-04-05T00:05:14.345Z,997.06
2023-04-05T00:06:13.429Z,997.07
2023-04-05T00:07:13.292Z,997.01
2023-04-05T00:08:13.330Z,997.07
2023-04-05T00:09:13.302Z,997.06
2023-04-05T00:10:13.275Z,997.03
2023-04-05T00:11:13.242Z,997.04
2023-04-05T00:12:13.283Z,996.98
2023-04-05T00:13:13.216Z,997.00
2023-04-05T00:14:13.228Z,997.01
2023-04-05T00:15:13.210Z,996.97
2023-04-05T00:16:13.285Z,997.00
2023-04-05T00:17:13.186Z,996.94
2023-04-05T00:18:13.206Z,996.95
2023-04-05T00:19:13.230Z,996.95
2023-04-05T00:20:13.190Z,996.94
2023-04-05T00:21:13.151Z,996.93
2023-04-05T00:22:13.158Z,996.98
2023-04-05T00:23:13.157Z,996.94
2023-04-05T00:24:13.131Z,996.89
2023-04-05T00:25:13.171Z,996.94
2023-04-05T00:26:13.131Z,996.89
2023-04-05T00:27:13.116Z,996.91
2023-04-05T00:28:13.107Z,996.91
2023-04-05T00:29:13.128Z,996.93
2023-04-05T00:30:13.057Z,996.90
2023-04-05T00:31:13.088Z,996.92
2023-04-05T00:32:13.150Z,996.96
2023-04-05T00:33:13.042Z,996.93
2023-04-05T00:34:13.059Z,996.91
2023-04-05T00:35:13.032Z,996.88
2023-04-05T00:36:13.197Z,996.97
2023-04-05T00:37:13.026Z,996.87
2023-04-05T00:38:13.036Z,996.89
2023-04-05T00:39:13.012Z,996.89
2023-04-05T00:40:13.007Z,996.92
2023-04-05T00:41:12.959Z,996.87
2023-04-05T00:42:12.969Z,996.81
2023-04-05T00:43:12.964Z,996.88
2023-04-05T00:44:12.964Z,996.89
2023-04-05T00:45:12.982Z,996.86
2023-04-05T00:46:13.053Z,996.87
2023-04-05T00:47:12.924Z,996.85
2023-04-05T00:48:12.904Z,996.83
2023-04-05T00:49:12.918Z,996.82
2023-04-05T00:50:12.922Z,996.84
2023-04-05T00:51:13.893Z,996.89
2023-04-05T00:52:12.876Z,996.84
2023-04-05T00:53:12.860Z,996.79
2023-04-05T00:54:12.855Z,996.82
2023-04-05T00:55:12.898Z,996.83
2023-04-05T00:56:12.826Z,996.79
2023-04-05T00:57:12.853Z,996.80
2023-04-05T00:58:12.790Z,996.81
2023-04-05T00:59:12.845Z,996.76
2023-04-05T01:00:12.837Z,996.77
2023-04-05T01:01:12.807Z,996.78
2023-04-05T01:02:12.800Z,996.75
2023-04-05T01:03:12.763Z,996.82
2023-04-05T01:04:12.831Z,996.67
2023-04-05T01:05:12.748Z,996.68
2023-04-05T01:06:12.741Z,996.71
2023-04-05T01:07:12.729Z,996.77
2023-04-05T01:08:12.748Z,996.67
2023-04-05T01:09:12.718Z,996.73
2023-04-05T01:10:12.704Z,996.74
2023-04-05T01:11:12.694Z,996.68
2023-04-05T01:12:12.710Z,996.67
2023-04-05T01:13:12.718Z,996.66
2023-04-05T01:14:12.707Z,996.67
2023-04-05T01:15:12.632Z,996.73
2023-04-05T01:16:12.673Z,996.64
2023-04-05T01:17:12.698Z,996.74
2023-04-05T01:18:12.695Z,996.72
2023-04-05T01:19:12.634Z,996.66
2023-04-05T01:20:12.597Z,996.70
2023-04-05T01:21:12.612Z,996.72
2023-04-05T01:22:12.594Z,996.70
2023-04-05T01:23:12.601Z,996.68
2023-04-05T01:24:12.573Z,996.72
2023-04-05T01:25:12.566Z,996.74
2023-04-05T01:26:12.568Z,996.71
2023-04-05T01:27:12.523Z,996.76
2023-04-05T01:28:12.540Z,996.74
2023-04-05T01:29:12.537Z,996.79
2023-04-05T01:30:12.506Z,996.75
2023-04-05T01:31:12.538Z,996.78
2023-04-05T01:32:12.495Z,996.75
2023-04-05T01:33:12.625Z,996.73
2023-04-05T01:34:12.474Z,996.72
2023-04-05T01:35:12.478Z,996.75
2023-04-05T01:36:12.462Z,996.71
2023-04-05T01:37:12.434Z,996.71
2023-04-05T01:38:12.431Z,996.72
2023-04-05T01:39:12.441Z,996.71
2023-04-05T01:40:12.441Z,996.71
2023-04-05T01:41:12.397Z,996.73
2023-04-05T01:42:12.421Z,996.73
2023-04-05T01:43:13.411Z,996.73
2023-04-05T01:44:12.382Z,996.68
2023-04-05T01:45:12.387Z,996.76
2023-04-05T01:46:12.384Z,996.61
2023-04-05T01:47:12.332Z,996.70
2023-04-05T01:48:12.377Z,996.66
2023-04-05T01:49:12.306Z,996.69
2023-04-05T01:50:12.318Z,996.59
2023-04-05T01:51:12.319Z,996.61
2023-04-05T01:52:12.299Z,996.64
2023-04-05T01:53:12.393Z,996.61
2023-04-05T01:54:12.279Z,996.58
2023-04-05T01:55:12.284Z,996.59
2023-04-05T01:56:12.266Z,996.54
2023-04-05T01:57:12.289Z,996.56
2023-04-05T01:58:12.258Z,996.53
2023-04-05T01:59:12.279Z,996.54
2023-04-05T02:00:12.234Z,996.52
2023-04-05T02:01:12.323Z,996.51
2023-04-05T02:02:12.219Z,996.56
2023-04-05T02:03:12.289Z,996.55
2023-04-05T02:04:12.202Z,996.51
2023-04-05T02:05:12.183Z,996.56
2023-04-05T02:06:12.216Z,996.49
2023-04-05T02:07:12.151Z,996.51
2023-04-05T02:08:12.155Z,996.52
2023-04-05T02:09:12.143Z,996.49
2023-04-05T02:10:12.105Z,996.46
2023-04-05T02:11:12.107Z,996.50
2023-04-05T02:12:12.104Z,996.53
2023-04-05T02:13:12.087Z,996.47
2023-04-05T02:14:12.065Z,996.53
2023-04-05T02:15:12.069Z,996.53
2023-04-05T02:16:12.108Z,996.54
2023-04-05T02:17:12.060Z,996.53
2023-04-05T02:18:12.126Z,996.51
2023-04-05T02:19:12.031Z,996.50
2023-04-05T02:20:12.048Z,996.54
2023-04-05T02:21:12.005Z,996.55
2023-04-05T02:22:44.967Z,996.47
2023-04-05T02:23:11.991Z,996.55
2023-04-05T02:24:11.974Z,996.51
2023-04-05T02:25:11.978Z,996.50
2023-04-05T02:26:11.968Z,996.42
2023-04-05T02:27:11.965Z,996.44
2023-04-05T02:28:12.078Z,996.48
2023-04-05T02:29:11.917Z,996.54
2023-04-05T02:30:11.916Z,996.59
2023-04-05T02:31:11.918Z,996.53
2023-04-05T02:32:43.829Z,996.51
2023-04-05T02:33:11.889Z,996.54
2023-04-05T02:34:11.885Z,996.56
2023-04-05T02:35:11.874Z,996.60
2023-04-05T02:36:11.849Z,996.58
2023-04-05T02:37:11.872Z,996.54
2023-04-05T02:38:11.920Z,996.61
2023-04-05T02:39:11.850Z,996.56
2023-04-05T02:40:12.835Z,996.54
2023-04-05T02:41:11.827Z,996.57
2023-04-05T02:42:11.831Z,996.63
2023-04-05T02:43:11.793Z,996.59
2023-04-05T02:44:11.845Z,996.60
2023-04-05T02:45:11.761Z,996.64
2023-04-05T02:46:11.804Z,996.61
2023-04-05T02:47:11.808Z,996.47
2023-04-05T02:48:11.769Z,996.44
2023-04-05T02:49:11.740Z,996.47
2023-04-05T02:50:11.844Z,996.48
2023-04-05T02:51:11.722Z,996.51
2023-04-05T02:52:11.723Z,996.49
2023-04-05T02:53:11.683Z,996.49
2023-04-05T02:54:11.715Z,996.49
2023-04-05T02:55:11.726Z,996.50
2023-04-05T02:56:11.668Z,996.55
2023-04-05T02:57:11.763Z,996.52
2023-04-05T02:58:11.639Z,996.50
2023-04-05T02:59:11.697Z,996.50
2023-04-05T03:00:11.620Z,996.50
2023-04-05T03:01:11.723Z,996.46
2023-04-05T03:02:11.648Z,996.52
2023-04-05T03:03:11.723Z,996.47
2023-04-05T03:04:11.606Z,996.47
2023-04-05T03:05:11.608Z,996.43
2023-04-05T03:06:11.578Z,996.43
2023-04-05T03:07:11.547Z,996.45
2023-04-05T03:08:11.589Z,996.45
2023-04-05T03:09:11.556Z,996.44
2023-04-05T03:10:11.570Z,996.48
2023-04-05T03:11:11.525Z,996.46
2023-04-05T03:12:11.533Z,996.47
2023-04-05T03:13:11.488Z,996.45
2023-04-05T03:14:11.529Z,996.46
2023-04-05T03:15:11.515Z,996.42
2023-04-05T03:16:11.500Z,996.42
2023-04-05T03:17:11.480Z,996.49
2023-04-05T03:18:11.480Z,996.42
2023-04-05T03:19:11.468Z,996.38
2023-04-05T03:20:11.444Z,996.46
2023-04-05T03:21:11.442Z,996.37
2023-04-05T03:22:11.532Z,996.39
2023-04-05T03:23:11.427Z,996.38
2023-04-05T03:24:11.396Z,996.33
2023-04-05T03:25:11.401Z,996.32
2023-04-05T03:26:11.397Z,996.31
2023-04-05T03:27:11.363Z,996.34
2023-04-05T03:28:11.418Z,996.34
2023-04-05T03:29:11.348Z,996.34
2023-04-05T03:30:11.351Z,996.36
2023-04-05T03:31:11.348Z,996.33
2023-04-05T03:32:11.338Z,996.33
2023-04-05T03:33:11.402Z,996.30
2023-04-05T03:34:12.290Z,996.32
2023-04-05T03:35:11.295Z,996.30
2023-04-05T03:36:11.329Z,996.28
2023-04-05T03:37:11.295Z,996.27
2023-04-05T03:38:11.288Z,996.30
2023-04-05T03:39:11.265Z,996.28
2023-04-05T03:40:11.289Z,996.21
2023-04-05T03:41:11.255Z,996.26
2023-04-05T03:42:11.204Z,996.30
2023-04-05T03:43:11.404Z,996.26
2023-04-05T03:44:11.279Z,996.26
2023-04-05T03:45:11.225Z,996.20
2023-04-05T03:46:11.229Z,996.15
2023-04-05T03:47:11.167Z,996.23
2023-04-05T03:48:11.221Z,996.26
2023-04-05T03:49:11.210Z,996.24
2023-04-05T03:50:11.183Z,996.25
2023-04-05T03:51:11.152Z,996.23
2023-04-05T03:52:11.145Z,996.24
2023-04-05T03:53:11.139Z,996.26
2023-04-05T03:54:11.118Z,996.24
2023-04-05T03:55:11.164Z,996.27
2023-04-05T03:56:11.091Z,996.31
2023-04-05T03:57:11.095Z,996.26
2023-04-05T03:58:11.070Z,996.32
2023-04-05T03:59:11.112Z,996.20
2023-04-05T04:00:11.062Z,996.28
2023-04-05T04:01:11.077Z,996.28
2023-04-05T04:02:11.100Z,996.27
2023-04-05T04:03:11.095Z,996.25
2023-04-05T04:04:11.017Z,996.25
2023-04-05T04:05:11.025Z,996.24
2023-04-05T04:06:11.073Z,996.21
2023-04-05T04:07:10.999Z,996.21
2023-04-05T04:08:11.030Z,996.27
2023-04-05T04:09:10.985Z,996.25
2023-04-05T04:10:10.935Z,996.23
2023-04-05T04:11:11.932Z,996.24
2023-04-05T04:12:10.917Z,996.20
2023-04-05T04:13:10.910Z,996.25
2023-04-05T04:14:10.931Z,996.26
2023-04-05T04:15:10.890Z,996.23
2023-04-05T04:16:11.051Z,996.23
2023-04-05T04:17:10.912Z,996.21
2023-04-05T04:18:10.903Z,996.22
2023-04-05T04:19:10.874Z,996.17
2023-04-05T04:20:10.882Z,996.26
2023-04-05T04:21:10.847Z,996.20
2023-04-05T04:22:10.847Z,996.17
2023-04-05T04:23:10.835Z,996.22
2023-04-05T04:24:10.845Z,996.22
2023-04-05T04:25:10.968Z,996.21
2023-04-05T04:26:10.816Z,996.17
2023-04-05T04:27:10.824Z,996.22
2023-04-05T04:28:10.802Z,996.15
2023-04-05T04:29:10.806Z,996.17
2023-04-05T04:30:10.859Z,996.15
2023-04-05T04:31:10.762Z,996.25
2023-04-05T04:32:10.910Z,996.26
2023-04-05T04:33:10.770Z,996.25
2023-04-05T04:34:10.758Z,996.22
2023-04-05T04:35:10.721Z,996.30
2023-04-05T04:36:11.719Z,996.26
2023-04-05T04:37:10.698Z,996.21
2023-04-05T04:38:10.699Z,996.23
2023-04-05T04:39:10.729Z,996.31
2023-04-05T04:40:10.689Z,996.27
2023-04-05T04:41:10.652Z,996.25
2023-04-05T04:42:10.668Z,996.23
2023-04-05T04:43:10.644Z,996.26
2023-04-05T04:44:10.680Z,996.23
2023-04-05T04:45:10.641Z,996.24
2023-04-05T04:46:10.685Z,996.21
2023-04-05T04:47:10.594Z,996.24
2023-04-05T04:48:10.625Z,996.22
2023-04-05T04:49:10.594Z,996.18
2023-04-05T04:50:10.578Z,996.19
2023-04-05T04:51:10.589Z,996.29
2023-04-05T04:52:10.570Z,996.26
2023-04-05T04:53:10.578Z,996.27
2023-04-05T04:54:10.583Z,996.28
2023-04-05T04:55:10.544Z,996.24
2023-04-05T04:56:10.554Z,996.28
2023-04-05T04:57:10.550Z,996.24
2023-04-05T04:58:10.564Z,996.31
2023-04-05T04:59:10.585Z,996.30
2023-04-05T05:00:10.478Z,996.29
2023-04-05T05:01:10.566Z,996.32
2023-04-05T05:02:10.496Z,996.31
2023-04-05T05:03:10.482Z,996.29
2023-04-05T05:04:10.572Z,996.30
2023-04-05T05:05:10.500Z,996.34
2023-04-05T05:06:10.449Z,996.37
2023-04-05T05:07:10.441Z,996.34
2023-04-05T05:08:10.460Z,996.36
2023-04-05T05:09:10.414Z,996.32
2023-04-05T05:10:10.401Z,996.32
2023-04-05T05:11:10.405Z,996.36
2023-04-05T05:12:10.383Z,996.33
2023-04-05T05:13:10.395Z,996.26
2023-04-05T05:14:10.389Z,996.25
2023-04-05T05:15:10.329Z,996.20
2023-04-05T05:16:10.340Z,996.23
2023-04-05T05:17:10.314Z,996.23
2023-04-05T05:18:10.459Z,996.27
2023-04-05T05:19:10.327Z,996.17
2023-04-05T05:20:10.308Z,996.23
2023-04-05T05:21:10.314Z,996.26
2023-04-05T05:22:10.297Z,996.21
2023-04-05T05:23:10.287Z,996.25
2023-04-05T05:24:10.274Z,996.26
2023-04-05T05:25:10.254Z,996.23
2023-04-05T05:26:10.220Z,996.20
2023-04-05T05:27:10.228Z,996.16
2023-04-05T05:28:10.238Z,996.15
2023-04-05T05:29:10.186Z,996.25
2023-04-05T05:30:10.184Z,996.22
2023-04-05T05:31:10.193Z,996.18
2023-04-05T05:32:10.194Z,996.16
2023-04-05T05:33:10.232Z,996.20
2023-04-05T05:34:10.162Z,996.13
2023-04-05T05:35:10.163Z,996.13
2023-04-05T05:36:10.136Z,996.09
2023-04-05T05:37:10.113Z,996.07
2023-04-05T05:38:11.955Z,996.08
2023-04-05T05:39:11.181Z,996.10
2023-04-05T05:40:10.123Z,996.07
2023-04-05T05:41:10.126Z,996.08
2023-04-05T05:42:10.122Z,996.12
2023-04-05T05:43:10.114Z,996.11
2023-04-05T05:44:11.094Z,996.10
2023-04-05T05:45:10.235Z,996.06
2023-04-05T05:46:10.095Z,996.13
2023-04-05T05:47:10.040Z,996.11
2023-04-05T05:48:10.034Z,996.05
2023-04-05T05:49:10.005Z,996.13
2023-04-05T05:50:10.087Z,996.08
2023-04-05T05:51:09.991Z,996.06
2023-04-05T05:52:10.020Z,996.08
2023-04-05T05:53:09.989Z,996.07
2023-04-05T05:54:10.001Z,996.03
2023-04-05T05:55:09.948Z,996.06
2023-04-05T05:56:09.997Z,996.05
2023-04-05T05:57:09.917Z,995.99
2023-04-05T05:58:09.915Z,996.05
2023-04-05T05:59:09.913Z,996.04
2023-04-05T06:00:09.947Z,996.09
2023-04-05T06:01:09.910Z,996.04
2023-04-05T06:02:09.913Z,996.07
2023-04-05T06:03:09.970Z,996.04
2023-04-05T06:04:09.953Z,996.01
2023-04-05T06:05:09.865Z,996.03
2023-04-05T06:06:09.860Z,996.03
2023-04-05T06:07:09.836Z,996.06
2023-04-05T06:08:09.810Z,996.00
2023-04-05T06:09:09.897Z,996.03
2023-04-05T06:10:09.804Z,995.98
2023-04-05T06:11:09.823Z,996.01
2023-04-05T06:12:09.779Z,996.00
2023-04-05T06:13:09.784Z,996.03
2023-04-05T06:14:09.770Z,996.06
2023-04-05T06:15:09.783Z,996.07
2023-04-05T06:16:09.779Z,996.04
2023-04-05T06:17:09.760Z,996.03
2023-04-05T06:18:09.747Z,996.04
2023-04-05T06:19:10.804Z,996.05
2023-04-05T06:20:09.725Z,995.95
2023-04-05T06:21:09.711Z,996.01
2023-04-05T06:22:09.726Z,995.99
2023-04-05T06:23:09.675Z,996.01
2023-04-05T06:24:09.704Z,996.00
2023-04-05T06:25:09.669Z,995.98
2023-04-05T06:26:09.714Z,996.05
2023-04-05T06:27:09.646Z,995.99
2023-04-05T06:28:09.661Z,996.00
2023-04-05T06:29:09.668Z,995.95
2023-04-05T06:30:09.605Z,995.99
2023-04-05T06:31:11.468Z,995.98
2023-04-05T06:32:09.621Z,995.99
2023-04-05T06:33:09.670Z,995.92
2023-04-05T06:34:09.729Z,995.93
2023-04-05T06:35:09.602Z,995.91
2023-04-05T06:36:09.571Z,995.87
2023-04-05T06:37:09.547Z,995.88
2023-04-05T06:38:09.569Z,995.96
2023-04-05T06:39:09.532Z,995.88
2023-04-05T06:40:09.537Z,995.85
2023-04-05T06:41:09.537Z,995.85
2023-04-05T06:42:09.508Z,995.86
2023-04-05T06:43:09.478Z,995.89
2023-04-05T06:44:09.482Z,995.80
2023-04-05T06:45:09.488Z,995.80
2023-04-05T06:46:09.541Z,995.71
2023-04-05T06:47:09.444Z,995.78
2023-04-05T06:48:09.475Z,995.77
2023-04-05T06:49:09.415Z,995.79
2023-04-05T06:50:09.425Z,995.76
2023-04-05T06:51:09.450Z,995.77
2023-04-05T06:52:09.419Z,995.74
2023-04-05T06:53:09.398Z,995.71
2023-04-05T06:54:09.396Z,995.73
2023-04-05T06:55:09.398Z,995.65
2023-04-05T06:56:09.363Z,995.70
2023-04-05T06:57:09.368Z,995.65
2023-04-05T06:58:09.362Z,995.63
2023-04-05T06:59:09.374Z,995.60
2023-04-05T07:00:09.352Z,995.55
2023-04-05T07:01:09.357Z,995.59
2023-04-05T07:02:09.365Z,995.56
2023-04-05T07:03:09.351Z,995.56
2023-04-05T07:04:09.319Z,995.58
2023-04-05T07:05:09.280Z,995.58
2023-04-05T07:06:09.292Z,995.57
2023-04-05T07:07:09.295Z,995.58
2023-04-05T07:08:09.288Z,995.57
2023-04-05T07:09:09.287Z,995.57
2023-04-05T07:10:09.276Z,995.55
2023-04-05T07:11:09.358Z,995.56
2023-04-05T07:12:09.268Z,995.52
2023-04-05T07:13:09.230Z,995.46
2023-04-05T07:14:09.186Z,995.54
2023-04-05T07:15:09.182Z,995.50
2023-04-05T07:16:09.233Z,995.48
2023-04-05T07:17:09.161Z,995.42
2023-04-05T07:18:09.239Z,995.47
2023-04-05T07:19:09.161Z,995.43
2023-04-05T07:20:09.137Z,995.37
2023-04-05T07:21:09.136Z,995.37
2023-04-05T07:22:09.149Z,995.44
2023-04-05T07:23:09.131Z,995.37
2023-04-05T07:24:09.087Z,995.39
2023-04-05T07:25:09.106Z,995.43
2023-04-05T07:26:09.079Z,995.39
2023-04-05T07:27:09.090Z,995.44
2023-04-05T07:28:09.069Z,995.38
2023-04-05T07:29:09.078Z,995.37
2023-04-05T07:30:09.028Z,995.38
2023-04-05T07:31:09.018Z,995.37
2023-04-05T07:32:09.073Z,995.38
2023-04-05T07:33:09.047Z,995.40
2023-04-05T07:34:09.010Z,995.39
2023-04-05T07:35:09.001Z,995.40
2023-04-05T07:36:09.033Z,995.41
2023-04-05T07:37:08.952Z,995.39
2023-04-05T07:38:08.940Z,995.40
2023-04-05T07:39:08.972Z,995.39
2023-04-05T07:40:08.973Z,995.37
2023-04-05T07:41:08.943Z,995.41
2023-04-05T07:42:08.926Z,995.39
2023-04-05T07:43:08.909Z,995.40
2023-04-05T07:44:08.899Z,995.42
2023-04-05T07:45:08.922Z,995.40
2023-04-05T07:46:08.950Z,995.38
2023-04-05T07:47:08.873Z,995.39
2023-04-05T07:48:08.922Z,995.38
2023-04-05T07:49:08.877Z,995.42
2023-04-05T07:50:08.879Z,995.39
2023-04-05T07:51:08.842Z,995.45
2023-04-05T07:52:08.806Z,995.35
2023-04-05T07:53:08.806Z,995.43
2023-04-05T07:54:08.816Z,995.40
2023-04-05T07:55:08.800Z,995.40
2023-04-05T07:56:08.753Z,995.42
2023-04-05T07:57:09.791Z,995.38
2023-04-05T07:58:08.779Z,995.40
2023-04-05T07:59:08.778Z,995.43
2023-04-05T08:00:08.753Z,995.34
2023-04-05T08:01:08.758Z,995.36
2023-04-05T08:02:14.436Z,995.38
2023-04-05T08:03:09.826Z,995.31
2023-04-05T08:04:08.800Z,995.32
2023-04-05T08:05:08.736Z,995.36
2023-04-05T08:06:08.690Z,995.35
2023-04-05T08:07:08.688Z,995.30
2023-04-05T08:08:08.656Z,995.33
2023-04-05T08:09:08.686Z,995.31
2023-04-05T08:10:08.636Z,995.25
2023-04-05T08:11:08.669Z,995.30
2023-04-05T08:12:08.637Z,995.27
2023-04-05T08:13:08.612Z,995.24
2023-04-05T08:14:08.680Z,995.25
2023-04-05T08:15:08.632Z,995.29
2023-04-05T08:16:08.605Z,995.22
2023-04-05T08:17:08.573Z,995.23
2023-04-05T08:18:08.677Z,995.24
2023-04-05T08:19:08.553Z,995.16
2023-04-05T08:20:08.613Z,995.22
2023-04-05T08:21:08.544Z,995.17
2023-04-05T08:22:40.466Z,995.22
2023-04-05T08:23:08.544Z,995.19
2023-04-05T08:24:08.526Z,995.13
2023-04-05T08:25:08.521Z,995.22
2023-04-05T08:26:08.528Z,995.15
2023-04-05T08:27:09.493Z,995.20
2023-04-05T08:28:08.468Z,995.13
2023-04-05T08:29:08.486Z,995.17
2023-04-05T08:30:08.465Z,995.23
2023-04-05T08:31:08.449Z,995.16
2023-04-05T08:32:08.564Z,995.14
2023-04-05T08:33:08.498Z,995.24
2023-04-05T08:34:08.443Z,995.24
2023-04-05T08:35:08.406Z,995.20
2023-04-05T08:36:08.550Z,995.19
2023-04-05T08:37:08.385Z,995.17
2023-04-05T08:38:08.393Z,995.14
2023-04-05T08:39:08.386Z,995.15
2023-04-05T08:40:08.350Z,995.14
2023-04-05T08:41:08.350Z,995.15
2023-04-05T08:42:08.386Z,995.10
2023-04-05T08:43:08.335Z,995.07
2023-04-05T08:44:08.343Z,995.10
2023-04-05T08:45:08.314Z,994.99
2023-04-05T08:46:08.368Z,994.96
2023-04-05T08:47:08.326Z,994.99
2023-04-05T08:48:08.335Z,995.04
2023-04-05T08:49:08.577Z,995.05
2023-04-05T08:50:08.386Z,995.00
2023-04-05T08:51:08.272Z,995.04
2023-04-05T08:52:08.259Z,994.97
2023-04-05T08:53:08.234Z,995.03
2023-04-05T08:54:08.246Z,995.00
2023-04-05T08:55:08.241Z,995.02
2023-04-05T08:56:08.193Z,994.99
2023-04-05T08:57:08.194Z,994.98
2023-04-05T08:58:08.183Z,994.99
2023-04-05T08:59:08.416Z,995.08
2023-04-05T09:00:08.252Z,995.01
2023-04-05T09:01:08.191Z,995.04
2023-04-05T09:02:08.205Z,995.03
2023-04-05T09:03:08.275Z,995.08
2023-04-05T09:04:08.185Z,995.00
2023-04-05T09:05:08.205Z,995.04
2023-04-05T09:06:08.128Z,995.06
2023-04-05T09:07:08.102Z,995.11
2023-04-05T09:08:08.134Z,995.03
2023-04-05T09:09:08.145Z,995.09
2023-04-05T09:10:08.124Z,995.10
2023-04-05T09:11:08.187Z,994.96
2023-04-05T09:12:08.069Z,994.96
2023-04-05T09:13:08.039Z,995.01
2023-04-05T09:14:08.077Z,994.93
2023-04-05T09:15:08.064Z,995.00
2023-04-05T09:16:08.051Z,994.96
2023-04-05T09:17:08.044Z,995.01
2023-04-05T09:18:18.984Z,995.01
2023-04-05T09:19:08.989Z,994.98
2023-04-05T09:20:08.007Z,995.05
2023-04-05T09:21:08.028Z,994.98
2023-04-05T09:22:07.974Z,994.98
2023-04-05T09:23:07.960Z,995.03
2023-04-05T09:24:07.970Z,994.98
2023-04-05T09:25:07.931Z,994.97
2023-04-05T09:26:07.942Z,995.03
2023-04-05T09:27:07.922Z,995.01
2023-04-05T09:28:07.893Z,995.03
2023-04-05T09:29:07.886Z,995.01
2023-04-05T09:30:07.908Z,994.98
2023-04-05T09:31:07.924Z,995.01
2023-04-05T09:32:07.886Z,994.97
2023-04-05T09:33:07.919Z,994.90
2023-04-05T09:34:07.855Z,994.91
2023-04-05T09:35:07.815Z,995.01
2023-04-05T09:36:07.878Z,994.92
2023-04-05T09:37:07.882Z,994.90
2023-04-05T09:38:07.821Z,994.94
2023-04-05T09:39:08.070Z,994.93
2023-04-05T09:40:07.804Z,994.92
2023-04-05T09:41:07.778Z,994.93
2023-04-05T09:42:07.796Z,994.90
2023-04-05T09:43:07.749Z,995.07
2023-04-05T09:44:07.776Z,994.93
2023-04-05T09:45:07.771Z,994.96
2023-04-05T09:46:07.873Z,994.91
2023-04-05T09:47:07.735Z,995.01
2023-04-05T09:48:07.824Z,995.00
2023-04-05T09:49:07.748Z,994.99
2023-04-05T09:50:07.741Z,995.01
2023-04-05T09:51:12.480Z,995.01
2023-04-05T09:52:08.721Z,995.02
2023-04-05T09:53:07.719Z,995.03
2023-04-05T09:54:07.682Z,994.95
2023-04-05T09:55:07.655Z,995.01
2023-04-05T09:56:07.648Z,994.93
2023-04-05T09:57:07.608Z,994.91
2023-04-05T09:58:07.636Z,994.98
2023-04-05T09:59:07.637Z,994.98
2023-04-05T10:00:07.617Z,995.05
2023-04-05T10:01:16.719Z,994.99
2023-04-05T10:02:08.668Z,994.98
2023-04-05T10:03:07.779Z,994.96
2023-04-05T10:04:07.574Z,994.92
2023-04-05T10:05:07.518Z,994.92
2023-04-05T10:06:07.555Z,994.87
2023-04-05T10:07:07.625Z,994.90
2023-04-05T10:08:07.518Z,994.90
2023-04-05T10:09:07.532Z,994.89
2023-04-05T10:10:07.494Z,994.96
2023-04-05T10:11:07.547Z,994.88
2023-04-05T10:12:07.545Z,994.89
2023-04-05T10:13:07.468Z,994.84
2023-04-05T10:14:07.528Z,994.93
2023-04-05T10:15:07.462Z,994.83
2023-04-05T10:16:07.525Z,994.92
2023-04-05T10:17:07.439Z,994.91
2023-04-05T10:18:07.456Z,994.85
2023-04-05T10:19:07.385Z,994.92
2023-04-05T10:20:07.385Z,994.92
2023-04-05T10:21:07.416Z,994.97
2023-04-05T10:22:07.400Z,994.94
2023-04-05T10:23:07.389Z,994.81
2023-04-05T10:24:07.395Z,994.86
2023-04-05T10:25:07.340Z,994.88
2023-04-05T10:26:07.318Z,994.87
2023-04-05T10:27:07.319Z,994.88
2023-04-05T10:28:07.411Z,994.81
2023-04-05T10:29:07.347Z,994.80
2023-04-05T10:30:07.306Z,994.71
2023-04-05T10:31:07.311Z,994.66
2023-04-05T10:32:07.463Z,994.68
2023-04-05T10:33:07.382Z,994.69
2023-04-05T10:34:07.347Z,994.72
2023-04-05T10:35:07.276Z,994.69
2023-04-05T10:36:07.343Z,994.62
2023-04-05T10:37:07.271Z,994.71
2023-04-05T10:38:07.240Z,994.67
2023-04-05T10:39:07.272Z,994.76
2023-04-05T10:40:07.203Z,994.72
2023-04-05T10:41:07.216Z,994.75
2023-04-05T10:42:07.169Z,994.74
2023-04-05T10:43:07.185Z,994.77
2023-04-05T10:44:22.537Z,994.82
2023-04-05T10:45:08.218Z,994.77
2023-04-05T10:46:07.180Z,994.73
2023-04-05T10:47:07.139Z,994.74
2023-04-05T10:48:07.132Z,994.71
2023-04-05T10:49:07.121Z,994.63
2023-04-05T10:50:07.128Z,994.66
2023-04-05T10:51:07.073Z,994.67
2023-04-05T10:52:07.113Z,994.58
2023-04-05T10:53:07.113Z,994.60
2023-04-05T10:54:07.077Z,994.59
2023-04-05T10:55:07.083Z,994.65
2023-04-05T10:56:07.044Z,994.64
2023-04-05T10:57:09.117Z,994.60
2023-04-05T10:58:07.063Z,994.56
2023-04-05T10:59:08.053Z,994.55
2023-04-05T11:00:07.037Z,994.55
2023-04-05T11:01:07.079Z,994.53
2023-04-05T11:02:07.041Z,994.50
2023-04-05T11:03:07.028Z,994.57
2023-04-05T11:04:07.039Z,994.50
2023-04-05T11:05:07.023Z,994.54
2023-04-05T11:06:06.951Z,994.49
2023-04-05T11:07:07.921Z,994.51
2023-04-05T11:08:06.936Z,994.45
2023-04-05T11:09:06.916Z,994.40
2023-04-05T11:10:06.944Z,994.46
2023-04-05T11:11:06.911Z,994.44
2023-04-05T11:12:06.925Z,994.42
2023-04-05T11:13:06.873Z,994.36
2023-04-05T11:14:06.873Z,994.37
2023-04-05T11:15:06.871Z,994.38
2023-04-05T11:16:06.886Z,994.37
2023-04-05T11:17:06.915Z,994.39
2023-04-05T11:18:06.869Z,994.30
2023-04-05T11:19:06.894Z,994.34
2023-04-05T11:20:06.851Z,994.32
2023-04-05T11:21:06.862Z,994.26
2023-04-05T11:22:06.841Z,994.24
2023-04-05T11:23:06.878Z,994.28
2023-04-05T11:24:06.830Z,994.25
2023-04-05T11:25:06.774Z,994.23
2023-04-05T11:26:06.787Z,994.16
2023-04-05T11:27:06.751Z,994.25
2023-04-05T11:28:06.732Z,994.22
2023-04-05T11:29:06.762Z,994.21
2023-04-05T11:30:06.738Z,994.19
2023-04-05T11:31:06.731Z,994.13
2023-04-05T11:32:06.693Z,994.19
2023-04-05T11:33:06.725Z,994.15
2023-04-05T11:34:06.761Z,994.17
2023-04-05T11:35:06.687Z,994.17
2023-04-05T11:36:06.704Z,994.11
2023-04-05T11:37:06.667Z,994.14
2023-04-05T11:38:06.662Z,994.16
2023-04-05T11:39:06.665Z,994.10
2023-04-05T11:40:06.876Z,994.09
2023-04-05T11:41:07.628Z,994.06
2023-04-05T11:42:06.649Z,994.06
2023-04-05T11:43:06.599Z,994.08
2023-04-05T11:44:06.594Z,994.01
2023-04-05T11:45:06.605Z,994.08
2023-04-05T11:46:06.603Z,994.09
2023-04-05T11:47:06.556Z,994.02
2023-04-05T11:48:06.620Z,994.07
2023-04-05T11:49:06.534Z,994.09
2023-04-05T11:50:06.562Z,994.05
2023-04-05T11:51:06.527Z,994.06
2023-04-05T11:52:06.525Z,994.00
2023-04-05T11:53:06.498Z,994.02
2023-04-05T11:54:06.512Z,994.10
2023-04-05T11:55:06.498Z,994.06
2023-04-05T11:56:06.469Z,994.02
2023-04-05T11:57:06.477Z,994.05
2023-04-05T11:58:06.432Z,994.02
2023-04-05T11:59:06.507Z,993.97
2023-04-05T12:00:06.456Z,993.98
2023-04-05T12:01:06.406Z,993.90
2023-04-05T12:02:06.425Z,993.92
2023-04-05T12:03:06.509Z,993.99
2023-04-05T12:04:06.500Z,993.99
2023-04-05T12:05:06.467Z,993.91
2023-04-05T12:06:06.357Z,993.93
2023-04-05T12:07:06.389Z,993.90
2023-04-05T12:08:06.352Z,993.91
2023-04-05T12:09:06.347Z,993.84
2023-04-05T12:10:06.316Z,993.87
2023-04-05T12:11:06.327Z,993.86
2023-04-05T12:12:06.359Z,993.86
2023-04-05T12:13:06.361Z,993.85
2023-04-05T12:14:06.360Z,993.80
2023-04-05T12:15:06.337Z,993.76
2023-04-05T12:16:07.324Z,993.82
2023-04-05T12:17:06.308Z,993.83
2023-04-05T12:18:06.393Z,993.84
2023-04-05T12:19:06.253Z,993.85
2023-04-05T12:20:06.325Z,993.80
2023-04-05T12:21:07.657Z,993.79
2023-04-05T12:22:07.199Z,993.84
2023-04-05T12:23:06.223Z,993.77
2023-04-05T12:24:06.188Z,993.78
2023-04-05T12:25:06.215Z,993.75
2023-04-05T12:26:06.206Z,993.72
2023-04-05T12:27:06.165Z,993.77
2023-04-05T12:28:06.176Z,993.82